sensor_id;sensor_type;location;lat;lon;timestamp;pressure;altitude;pressure_sealevel;temperature;humidity
21824;BME280;11074;48.596;9.238;2023-07-13T00:00:36;98180.75;;;24.61;60.35
21824;BME280;11074;48.596;9.238;2023-07-13T00:03:03;98177.31;;;24.52;60.20
21824;BME280;11074;48.596;9.238;2023-07-13T00:05:30;98176.06;;;24.49;59.59
21824;BME280;11074;48.596;9.238;2023-07-13T00:07:56;98177.22;;;24.48;59.86
21824;BME280;11074;48.596;9.238;2023-07-13T00:10:22;98170.03;;;24.44;59.64
21824;BME280;11074;48.596;9.238;2023-07-13T00:12:48;98158.66;;;24.42;60.08
21824;BME280;11074;48.596;9.238;2023-07-13T00:15:20;98163.19;;;24.38;60.28
21824;BME280;11074;48.596;9.238;2023-07-13T00:17:53;98163.19;;;24.38;59.97
21824;BME280;11074;48.596;9.238;2023-07-13T00:20:22;98163.53;;;24.36;60.69
21824;BME280;11074;48.596;9.238;2023-07-13T00:22:51;98171.03;;;24.27;60.77
21824;BME280;11074;48.596;9.238;2023-07-13T00:25:20;98172.78;;;24.32;60.50
21824;BME280;11074;48.596;9.238;2023-07-13T00:27:48;98167.63;;;24.18;60.60
21824;BME280;11074;48.596;9.238;2023-07-13T00:30:17;98178.19;;;24.07;61.10
21824;BME280;11074;48.596;9.238;2023-07-13T00:32:43;98173.38;;;23.92;61.50
21824;BME280;11074;48.596;9.238;2023-07-13T00:35:09;98169.94;;;23.83;61.82
21824;BME280;11074;48.596;9.238;2023-07-13T00:37:35;98177.56;;;23.78;61.71
21824;BME280;11074;48.596;9.238;2023-07-13T00:40:03;98169.22;;;23.74;61.43
21824;BME280;11074;48.596;9.238;2023-07-13T00:42:31;98171.81;;;23.59;62.33
21824;BME280;11074;48.596;9.238;2023-07-13T00:47:40;98181.66;;;23.39;61.13
21824;BME280;11074;48.596;9.238;2023-07-13T00:50:12;98182.59;;;23.34;60.61
21824;BME280;11074;48.596;9.238;2023-07-13T00:52:44;98172.91;;;23.25;60.17
21824;BME280;11074;48.596;9.238;2023-07-13T00:55:12;98178.56;;;23.20;59.84
21824;BME280;11074;48.596;9.238;2023-07-13T00:57:39;98181.34;;;23.32;60.29
21824;BME280;11074;48.596;9.238;2023-07-13T01:00:07;98183.50;;;23.47;60.52
21824;BME280;11074;48.596;9.238;2023-07-13T01:02:40;98192.66;;;23.42;58.49
21824;BME280;11074;48.596;9.238;2023-07-13T01:05:17;98191.94;;;23.33;59.02
21824;BME280;11074;48.596;9.238;2023-07-13T01:07:44;98196.91;;;23.31;59.03
21824;BME280;11074;48.596;9.238;2023-07-13T01:10:12;98202.00;;;23.41;59.06
21824;BME280;11074;48.596;9.238;2023-07-13T01:12:38;98196.88;;;23.40;59.49
21824;BME280;11074;48.596;9.238;2023-07-13T01:15:05;98203.25;;;23.23;60.21
21824;BME280;11074;48.596;9.238;2023-07-13T01:17:34;98204.78;;;23.12;60.30
21824;BME280;11074;48.596;9.238;2023-07-13T01:20:00;98196.47;;;23.09;60.29
21824;BME280;11074;48.596;9.238;2023-07-13T01:22:26;98200.41;;;22.99;60.45
21824;BME280;11074;48.596;9.238;2023-07-13T01:24:54;98202.91;;;23.04;60.57
21824;BME280;11074;48.596;9.238;2023-07-13T01:27:25;98202.38;;;22.90;59.87
21824;BME280;11074;48.596;9.238;2023-07-13T01:29:53;98205.34;;;22.76;60.59
21824;BME280;11074;48.596;9.238;2023-07-13T01:32:24;98197.63;;;22.78;60.48
21824;BME280;11074;48.596;9.238;2023-07-13T01:34:52;98199.50;;;22.86;60.34
21824;BME280;11074;48.596;9.238;2023-07-13T01:37:20;98193.47;;;23.02;60.81
21824;BME280;11074;48.596;9.238;2023-07-13T01:39:46;98194.47;;;23.18;61.84
21824;BME280;11074;48.596;9.238;2023-07-13T01:42:13;98189.03;;;23.18;60.52
21824;BME280;11074;48.596;9.238;2023-07-13T01:44:39;98200.09;;;23.13;60.98
21824;BME280;11074;48.596;9.238;2023-07-13T01:47:05;98203.63;;;23.13;61.07
21824;BME280;11074;48.596;9.238;2023-07-13T01:49:31;98201.50;;;23.19;61.54
21824;BME280;11074;48.596;9.238;2023-07-13T01:51:56;98202.31;;;23.19;60.79
21824;BME280;11074;48.596;9.238;2023-07-13T01:54:22;98206.97;;;22.98;61.28
21824;BME280;11074;48.596;9.238;2023-07-13T01:56:48;98216.81;;;22.90;61.44
21824;BME280;11074;48.596;9.238;2023-07-13T01:59:14;98213.47;;;22.85;61.43
21824;BME280;11074;48.596;9.238;2023-07-13T02:01:40;98218.47;;;22.83;61.77
21824;BME280;11074;48.596;9.238;2023-07-13T02:04:05;98221.09;;;22.71;61.43
21824;BME280;11074;48.596;9.238;2023-07-13T02:06:31;98217.44;;;22.67;61.58
21824;BME280;11074;48.596;9.238;2023-07-13T02:08:58;98221.78;;;22.59;62.19
21824;BME280;11074;48.596;9.238;2023-07-13T02:11:24;98219.75;;;22.48;62.64
21824;BME280;11074;48.596;9.238;2023-07-13T02:13:51;98218.63;;;22.49;62.42
21824;BME280;11074;48.596;9.238;2023-07-13T02:16:17;98218.75;;;22.52;62.55
21824;BME280;11074;48.596;9.238;2023-07-13T02:18:43;98221.63;;;22.64;63.17
21824;BME280;11074;48.596;9.238;2023-07-13T02:21:08;98217.91;;;22.69;62.70
21824;BME280;11074;48.596;9.238;2023-07-13T02:23:34;98224.66;;;22.63;62.37
21824;BME280;11074;48.596;9.238;2023-07-13T02:26:04;98218.94;;;22.47;62.75
21824;BME280;11074;48.596;9.238;2023-07-13T02:28:30;98217.81;;;22.48;62.67
21824;BME280;11074;48.596;9.238;2023-07-13T02:31:04;98221.19;;;22.45;62.76
21824;BME280;11074;48.596;9.238;2023-07-13T02:33:29;98218.66;;;22.40;62.85
21824;BME280;11074;48.596;9.238;2023-07-13T02:35:55;98221.34;;;22.49;63.01
21824;BME280;11074;48.596;9.238;2023-07-13T02:38:21;98221.16;;;22.54;63.11
21824;BME280;11074;48.596;9.238;2023-07-13T02:40:46;98229.00;;;22.55;63.42
21824;BME280;11074;48.596;9.238;2023-07-13T02:43:12;98226.75;;;22.57;63.36
21824;BME280;11074;48.596;9.238;2023-07-13T02:45:38;98226.22;;;22.34;63.67
21824;BME280;11074;48.596;9.238;2023-07-13T02:48:04;98219.50;;;22.32;63.38
21824;BME280;11074;48.596;9.238;2023-07-13T02:50:30;98222.31;;;22.44;63.90
21824;BME280;11074;48.596;9.238;2023-07-13T02:52:56;98213.34;;;22.44;63.25
21824;BME280;11074;48.596;9.238;2023-07-13T02:55:21;98209.00;;;22.51;64.21
21824;BME280;11074;48.596;9.238;2023-07-13T02:57:47;98211.84;;;22.55;63.92
21824;BME280;11074;48.596;9.238;2023-07-13T03:00:13;98215.72;;;22.54;63.96
21824;BME280;11074;48.596;9.238;2023-07-13T03:02:38;98211.31;;;22.32;63.33
21824;BME280;11074;48.596;9.238;2023-07-13T03:05:05;98213.47;;;22.09;63.69
21824;BME280;11074;48.596;9.238;2023-07-13T03:07:30;98218.44;;;22.16;63.71
21824;BME280;11074;48.596;9.238;2023-07-13T03:09:56;98221.59;;;22.26;64.13
21824;BME280;11074;48.596;9.238;2023-07-13T03:12:23;98232.06;;;22.16;63.32
21824;BME280;11074;48.596;9.238;2023-07-13T03:14:49;98231.06;;;22.20;63.38
21824;BME280;11074;48.596;9.238;2023-07-13T03:17:14;98235.47;;;21.96;64.48
21824;BME280;11074;48.596;9.238;2023-07-13T03:19:40;98238.84;;;21.93;64.49
21824;BME280;11074;48.596;9.238;2023-07-13T03:22:06;98231.47;;;21.76;64.50
21824;BME280;11074;48.596;9.238;2023-07-13T03:24:33;98242.03;;;21.69;64.71
21824;BME280;11074;48.596;9.238;2023-07-13T03:27:01;98236.94;;;21.67;64.79
21824;BME280;11074;48.596;9.238;2023-07-13T03:29:27;98236.94;;;21.67;64.93
21824;BME280;11074;48.596;9.238;2023-07-13T03:31:53;98236.59;;;21.69;65.00
21824;BME280;11074;48.596;9.238;2023-07-13T03:34:18;98240.47;;;21.68;64.65
21824;BME280;11074;48.596;9.238;2023-07-13T03:36:44;98233.75;;;21.65;64.44
21824;BME280;11074;48.596;9.238;2023-07-13T03:39:10;98238.38;;;21.73;63.94
21824;BME280;11074;48.596;9.238;2023-07-13T03:41:36;98248.44;;;21.73;63.25
21824;BME280;11074;48.596;9.238;2023-07-13T03:44:02;98254.69;;;21.73;63.40
21824;BME280;11074;48.596;9.238;2023-07-13T03:46:28;98251.63;;;21.84;63.22
21824;BME280;11074;48.596;9.238;2023-07-13T03:48:54;98247.16;;;21.79;63.27
21824;BME280;11074;48.596;9.238;2023-07-13T03:51:20;98253.25;;;21.76;63.04
21824;BME280;11074;48.596;9.238;2023-07-13T03:53:47;98251.97;;;21.82;63.23
21824;BME280;11074;48.596;9.238;2023-07-13T03:56:17;98253.44;;;21.71;62.63
21824;BME280;11074;48.596;9.238;2023-07-13T03:58:46;98255.19;;;21.67;62.09
21824;BME280;11074;48.596;9.238;2023-07-13T04:01:14;98261.28;;;21.55;62.76
21824;BME280;11074;48.596;9.238;2023-07-13T04:03:42;98259.50;;;21.59;62.44
21824;BME280;11074;48.596;9.238;2023-07-13T04:06:18;98272.47;;;21.62;60.85
21824;BME280;11074;48.596;9.238;2023-07-13T04:08:52;98270.22;;;21.73;62.20
21824;BME280;11074;48.596;9.238;2023-07-13T04:11:20;98262.38;;;21.89;62.12
21824;BME280;11074;48.596;9.238;2023-07-13T04:13:47;98262.38;;;21.97;61.69
21824;BME280;11074;48.596;9.238;2023-07-13T04:16:15;98271.16;;;21.77;62.22
21824;BME280;11074;48.596;9.238;2023-07-13T04:18:41;98269.25;;;21.77;61.47
21824;BME280;11074;48.596;9.238;2023-07-13T04:21:08;98278.06;;;21.83;62.10
21824;BME280;11074;48.596;9.238;2023-07-13T04:23:36;98273.13;;;21.77;62.56
21824;BME280;11074;48.596;9.238;2023-07-13T04:26:01;98270.88;;;21.79;62.35
21824;BME280;11074;48.596;9.238;2023-07-13T04:28:27;98274.38;;;21.79;61.78
21824;BME280;11074;48.596;9.238;2023-07-13T04:30:54;98276.94;;;21.75;61.79
21824;BME280;11074;48.596;9.238;2023-07-13T04:33:21;98285.09;;;21.67;61.50
21824;BME280;11074;48.596;9.238;2023-07-13T04:35:50;98286.56;;;21.73;61.81
21824;BME280;11074;48.596;9.238;2023-07-13T04:38:27;98284.16;;;21.71;61.94
21824;BME280;11074;48.596;9.238;2023-07-13T04:41:02;98285.28;;;21.79;62.52
21824;BME280;11074;48.596;9.238;2023-07-13T04:43:30;98272.94;;;21.82;62.36
21824;BME280;11074;48.596;9.238;2023-07-13T04:45:57;98280.47;;;21.76;62.80
21824;BME280;11074;48.596;9.238;2023-07-13T04:48:23;98279.66;;;21.75;63.01
21824;BME280;11074;48.596;9.238;2023-07-13T04:50:56;98279.19;;;21.82;62.47
21824;BME280;11074;48.596;9.238;2023-07-13T04:53:23;98279.19;;;21.73;62.29
21824;BME280;11074;48.596;9.238;2023-07-13T04:55:48;98285.59;;;21.77;62.16
21824;BME280;11074;48.596;9.238;2023-07-13T04:58:14;98279.03;;;21.79;62.38
21824;BME280;11074;48.596;9.238;2023-07-13T05:00:40;98286.25;;;21.66;62.50
21824;BME280;11074;48.596;9.238;2023-07-13T05:03:06;98283.19;;;21.67;62.81
21824;BME280;11074;48.596;9.238;2023-07-13T05:05:32;98284.31;;;21.66;63.40
21824;BME280;11074;48.596;9.238;2023-07-13T05:07:58;98278.06;;;21.74;62.24
21824;BME280;11074;48.596;9.238;2023-07-13T05:10:24;98290.56;;;21.75;62.29
21824;BME280;11074;48.596;9.238;2023-07-13T05:12:50;98288.00;;;21.79;61.68
21824;BME280;11074;48.596;9.238;2023-07-13T05:15:21;98288.34;;;21.86;61.96
21824;BME280;11074;48.596;9.238;2023-07-13T05:17:49;98287.84;;;21.93;61.08
21824;BME280;11074;48.596;9.238;2023-07-13T05:20:17;98292.81;;;21.91;60.55
21824;BME280;11074;48.596;9.238;2023-07-13T05:22:43;98290.88;;;21.91;59.62
21824;BME280;11074;48.596;9.238;2023-07-13T05:25:09;98306.09;;;21.92;59.90
21824;BME280;11074;48.596;9.238;2023-07-13T05:27:35;98317.63;;;21.89;60.09
21824;BME280;11074;48.596;9.238;2023-07-13T05:30:03;98313.94;;;21.94;60.50
21824;BME280;11074;48.596;9.238;2023-07-13T05:32:29;98312.03;;;22.03;60.55
21824;BME280;11074;48.596;9.238;2023-07-13T05:34:55;98305.94;;;22.06;60.36
21824;BME280;11074;48.596;9.238;2023-07-13T05:37:21;98306.56;;;22.11;60.02
21824;BME280;11074;48.596;9.238;2023-07-13T05:39:46;98304.94;;;22.19;60.15
21824;BME280;11074;48.596;9.238;2023-07-13T05:42:12;98310.69;;;22.17;60.60
21824;BME280;11074;48.596;9.238;2023-07-13T05:44:38;98318.88;;;22.17;61.12
21824;BME280;11074;48.596;9.238;2023-07-13T05:47:04;98312.97;;;22.15;62.19
21824;BME280;11074;48.596;9.238;2023-07-13T05:49:30;98320.78;;;22.17;62.89
21824;BME280;11074;48.596;9.238;2023-07-13T05:51:56;98321.13;;;22.15;63.03
21824;BME280;11074;48.596;9.238;2023-07-13T05:54:22;98330.09;;;22.16;63.12
21824;BME280;11074;48.596;9.238;2023-07-13T05:56:48;98321.94;;;22.16;63.73
21824;BME280;11074;48.596;9.238;2023-07-13T05:59:13;98322.75;;;22.16;63.56
21824;BME280;11074;48.596;9.238;2023-07-13T06:01:39;98326.91;;;22.14;63.44
21824;BME280;11074;48.596;9.238;2023-07-13T06:04:05;98325.47;;;22.16;63.42
21824;BME280;11074;48.596;9.238;2023-07-13T06:06:30;98327.84;;;22.18;63.76
21824;BME280;11074;48.596;9.238;2023-07-13T06:08:56;98330.56;;;22.18;63.49
21824;BME280;11074;48.596;9.238;2023-07-13T06:11:27;98334.56;;;22.20;63.71
21824;BME280;11074;48.596;9.238;2023-07-13T06:13:53;98339.03;;;22.25;63.23
21824;BME280;11074;48.596;9.238;2023-07-13T06:16:20;98341.13;;;22.28;63.65
21824;BME280;11074;48.596;9.238;2023-07-13T06:18:46;98344.81;;;22.32;63.41
21824;BME280;11074;48.596;9.238;2023-07-13T06:21:20;98350.09;;;22.37;63.37
21824;BME280;11074;48.596;9.238;2023-07-13T06:23:48;98350.56;;;22.39;63.03
21824;BME280;11074;48.596;9.238;2023-07-13T06:26:14;98346.06;;;22.43;63.07
21824;BME280;11074;48.596;9.238;2023-07-13T06:28:40;98350.06;;;22.46;63.05
21824;BME280;11074;48.596;9.238;2023-07-13T06:31:08;98352.94;;;22.49;63.70
21824;BME280;11074;48.596;9.238;2023-07-13T06:33:35;98358.19;;;22.54;63.23
21824;BME280;11074;48.596;9.238;2023-07-13T06:36:06;98355.97;;;22.56;60.92
21824;BME280;11074;48.596;9.238;2023-07-13T06:38:33;98352.44;;;22.56;61.68
21824;BME280;11074;48.596;9.238;2023-07-13T06:40:59;98355.31;;;22.59;60.82
21824;BME280;11074;48.596;9.238;2023-07-13T06:43:25;98364.47;;;22.63;60.71
21824;BME280;11074;48.596;9.238;2023-07-13T06:45:54;98355.19;;;22.64;59.10
21824;BME280;11074;48.596;9.238;2023-07-13T06:48:20;98355.66;;;22.66;59.67
21824;BME280;11074;48.596;9.238;2023-07-13T06:50:49;98356.13;;;22.68;59.34
21824;BME280;11074;48.596;9.238;2023-07-13T06:53:15;98358.84;;;22.68;57.81
21824;BME280;11074;48.596;9.238;2023-07-13T06:55:44;98363.00;;;22.57;56.95
21824;BME280;11074;48.596;9.238;2023-07-13T06:58:10;98365.09;;;22.60;55.92
21824;BME280;11074;48.596;9.238;2023-07-13T07:00:36;98351.47;;;22.60;55.00
21824;BME280;11074;48.596;9.238;2023-07-13T07:03:02;98360.09;;;22.62;56.61
21824;BME280;11074;48.596;9.238;2023-07-13T07:05:28;98366.38;;;22.63;56.02
21824;BME280;11074;48.596;9.238;2023-07-13T07:07:55;98369.28;;;22.66;55.92
21824;BME280;11074;48.596;9.238;2023-07-13T07:10:21;98364.44;;;22.72;55.83
21824;BME280;11074;48.596;9.238;2023-07-13T07:12:47;98367.31;;;22.75;55.66
21824;BME280;11074;48.596;9.238;2023-07-13T07:15:15;98362.00;;;22.79;54.78
21824;BME280;11074;48.596;9.238;2023-07-13T07:17:40;98364.28;;;22.77;52.52
21824;BME280;11074;48.596;9.238;2023-07-13T07:20:07;98365.19;;;22.81;53.64
21824;BME280;11074;48.596;9.238;2023-07-13T07:22:33;98366.00;;;22.81;53.19
21824;BME280;11074;48.596;9.238;2023-07-13T07:24:59;98366.97;;;22.85;53.86
21824;BME280;11074;48.596;9.238;2023-07-13T07:27:25;98359.25;;;22.87;54.08
21824;BME280;11074;48.596;9.238;2023-07-13T07:29:51;98365.50;;;22.88;53.44
21824;BME280;11074;48.596;9.238;2023-07-13T07:32:18;98368.38;;;22.91;52.94
21824;BME280;11074;48.596;9.238;2023-07-13T07:34:44;98354.56;;;22.97;53.98
21824;BME280;11074;48.596;9.238;2023-07-13T07:37:13;98358.56;;;22.99;52.17
21824;BME280;11074;48.596;9.238;2023-07-13T07:39:39;98365.47;;;22.97;51.74
21824;BME280;11074;48.596;9.238;2023-07-13T07:42:06;98370.59;;;22.98;50.43
21824;BME280;11074;48.596;9.238;2023-07-13T07:44:32;98369.94;;;23.01;53.78
21824;BME280;11074;48.596;9.238;2023-07-13T07:46:58;98359.34;;;23.00;51.03
21824;BME280;11074;48.596;9.238;2023-07-13T07:49:24;98360.31;;;23.04;52.39
21824;BME280;11074;48.596;9.238;2023-07-13T07:51:50;98362.22;;;23.03;51.14
21824;BME280;11074;48.596;9.238;2023-07-13T07:54:17;98375.56;;;23.05;49.21
21824;BME280;11074;48.596;9.238;2023-07-13T07:56:42;98373.94;;;23.04;48.32
21824;BME280;11074;48.596;9.238;2023-07-13T07:59:08;98374.13;;;22.99;47.77
21824;BME280;11074;48.596;9.238;2023-07-13T08:01:36;98376.22;;;23.02;48.20
21824;BME280;11074;48.596;9.238;2023-07-13T08:04:01;98373.59;;;23.05;50.77
21824;BME280;11074;48.596;9.238;2023-07-13T08:06:27;98372.16;;;23.08;50.46
21824;BME280;11074;48.596;9.238;2023-07-13T08:08:53;98369.56;;;23.11;48.88
21824;BME280;11074;48.596;9.238;2023-07-13T08:11:21;98367.31;;;23.13;47.90
21824;BME280;11074;48.596;9.238;2023-07-13T08:13:47;98370.53;;;23.15;50.16
21824;BME280;11074;48.596;9.238;2023-07-13T08:16:13;98369.38;;;23.16;49.60
21824;BME280;11074;48.596;9.238;2023-07-13T08:18:39;98360.38;;;23.16;48.71
21824;BME280;11074;48.596;9.238;2023-07-13T08:21:07;98364.38;;;23.18;50.79
21824;BME280;11074;48.596;9.238;2023-07-13T08:23:33;98358.16;;;23.18;49.05
21824;BME280;11074;48.596;9.238;2023-07-13T08:25:59;98350.09;;;23.21;49.36
21824;BME280;11074;48.596;9.238;2023-07-13T08:28:27;98361.97;;;23.25;50.47
21824;BME280;11074;48.596;9.238;2023-07-13T08:30:53;98362.88;;;23.29;50.97
21824;BME280;11074;48.596;9.238;2023-07-13T08:33:21;98361.13;;;23.33;48.84
21824;BME280;11074;48.596;9.238;2023-07-13T08:35:49;98362.53;;;23.39;49.71
21824;BME280;11074;48.596;9.238;2023-07-13T08:38:17;98360.59;;;23.40;49.10
21824;BME280;11074;48.596;9.238;2023-07-13T08:40:45;98348.88;;;23.39;50.04
21824;BME280;11074;48.596;9.238;2023-07-13T08:43:19;98367.53;;;23.37;48.91
21824;BME280;11074;48.596;9.238;2023-07-13T08:48:54;98367.53;;;23.37;44.27
21824;BME280;11074;48.596;9.238;2023-07-13T08:54:10;98364.91;;;23.49;46.28
21824;BME280;11074;48.596;9.238;2023-07-13T08:56:37;98367.75;;;23.53;46.39
21824;BME280;11074;48.596;9.238;2023-07-13T08:59:14;98365.97;;;23.57;44.98
21824;BME280;11074;48.596;9.238;2023-07-13T09:09:58;98368.66;;;23.66;44.07
21824;BME280;11074;48.596;9.238;2023-07-13T09:12:35;98366.38;;;23.68;45.66
21824;BME280;11074;48.596;9.238;2023-07-13T09:15:17;98368.44;;;23.71;45.55
21824;BME280;11074;48.596;9.238;2023-07-13T09:17:51;98368.56;;;23.74;45.43
21824;BME280;11074;48.596;9.238;2023-07-13T09:20:27;98364.03;;;23.78;45.56
21824;BME280;11074;48.596;9.238;2023-07-13T09:22:56;98369.31;;;23.83;44.51
21824;BME280;11074;48.596;9.238;2023-07-13T09:25:34;98371.16;;;23.91;43.26
21824;BME280;11074;48.596;9.238;2023-07-13T09:28:18;98365.84;;;23.95;42.61
21824;BME280;11074;48.596;9.238;2023-07-13T09:33:22;98347.56;;;24.07;42.44
21824;BME280;11074;48.596;9.238;2023-07-13T09:35:48;98363.56;;;24.18;42.65
21824;BME280;11074;48.596;9.238;2023-07-13T09:38:18;98365.88;;;24.28;42.97
21824;BME280;11074;48.596;9.238;2023-07-13T09:41:01;98361.88;;;24.25;41.98
21824;BME280;11074;48.596;9.238;2023-07-13T09:43:29;98366.75;;;24.20;42.72
21824;BME280;11074;48.596;9.238;2023-07-13T09:45:55;98367.44;;;24.17;41.74
21824;BME280;11074;48.596;9.238;2023-07-13T09:48:21;98361.28;;;24.20;43.85
21824;BME280;11074;48.596;9.238;2023-07-13T09:50:47;98369.50;;;24.20;42.97
21824;BME280;11074;48.596;9.238;2023-07-13T09:53:16;98367.25;;;24.22;43.23
21824;BME280;11074;48.596;9.238;2023-07-13T09:55:46;98363.50;;;24.26;42.85
21824;BME280;11074;48.596;9.238;2023-07-13T09:58:21;98364.19;;;24.35;42.57
21824;BME280;11074;48.596;9.238;2023-07-13T10:01:00;98365.72;;;24.45;42.77
21824;BME280;11074;48.596;9.238;2023-07-13T10:03:35;98365.97;;;24.52;43.09
21824;BME280;11074;48.596;9.238;2023-07-13T10:06:18;98368.47;;;24.57;43.24
21824;BME280;11074;48.596;9.238;2023-07-13T10:08:46;98359.16;;;24.58;41.22
21824;BME280;11074;48.596;9.238;2023-07-13T10:11:28;98359.16;;;24.58;41.41
21824;BME280;11074;48.596;9.238;2023-07-13T10:14:09;98359.72;;;24.63;42.73
21824;BME280;11074;48.596;9.238;2023-07-13T10:16:36;98368.38;;;24.65;40.51
21824;BME280;11074;48.596;9.238;2023-07-13T10:19:11;98366.59;;;24.69;39.78
21824;BME280;11074;48.596;9.238;2023-07-13T10:24:27;98354.66;;;24.86;40.09
21824;BME280;11074;48.596;9.238;2023-07-13T10:27:11;98354.78;;;25.02;39.91
21824;BME280;11074;48.596;9.238;2023-07-13T10:29:48;98359.47;;;25.13;39.54
21824;BME280;11074;48.596;9.238;2023-07-13T10:32:15;98356.94;;;25.20;38.82
21824;BME280;11074;48.596;9.238;2023-07-13T10:34:46;98360.47;;;25.33;39.76
21824;BME280;11074;48.596;9.238;2023-07-13T10:37:22;98350.56;;;25.41;40.26
21824;BME280;11074;48.596;9.238;2023-07-13T10:39:52;98345.06;;;25.53;41.04
21824;BME280;11074;48.596;9.238;2023-07-13T10:42:29;98343.69;;;25.59;39.82
21824;BME280;11074;48.596;9.238;2023-07-13T10:44:55;98343.81;;;25.62;40.14
21824;BME280;11074;48.596;9.238;2023-07-13T10:47:22;98342.75;;;25.67;38.07
21824;BME280;11074;48.596;9.238;2023-07-13T10:49:55;98345.25;;;25.72;37.88
21824;BME280;11074;48.596;9.238;2023-07-13T10:52:46;98333.72;;;25.78;38.09
21824;BME280;11074;48.596;9.238;2023-07-13T10:55:38;98341.03;;;25.74;36.83
21824;BME280;11074;48.596;9.238;2023-07-13T11:01:12;98344.25;;;25.64;40.62
21824;BME280;11074;48.596;9.238;2023-07-13T11:04:01;98341.19;;;25.54;38.08
21824;BME280;11074;48.596;9.238;2023-07-13T11:09:31;98328.19;;;25.51;39.95
21824;BME280;11074;48.596;9.238;2023-07-13T11:12:06;98332.19;;;25.53;40.06
21824;BME280;11074;48.596;9.238;2023-07-13T11:14:44;98326.38;;;25.55;38.20
21824;BME280;11074;48.596;9.238;2023-07-13T11:17:35;98326.59;;;25.50;38.22
21824;BME280;11074;48.596;9.238;2023-07-13T11:25:37;98316.09;;;25.52;39.38
21824;BME280;11074;48.596;9.238;2023-07-13T11:30:36;98320.19;;;25.33;38.40
21824;BME280;11074;48.596;9.238;2023-07-13T11:33:51;98322.94;;;25.33;38.52
21824;BME280;11074;48.596;9.238;2023-07-13T11:36:18;98316.56;;;25.54;39.94
21824;BME280;11074;48.596;9.238;2023-07-13T11:41:48;98320.63;;;26.27;39.08
21824;BME280;11074;48.596;9.238;2023-07-13T11:44:20;98314.91;;;26.48;37.69
21824;BME280;11074;48.596;9.238;2023-07-13T11:46:49;98319.25;;;26.65;37.70
21824;BME280;11074;48.596;9.238;2023-07-13T11:49:24;98307.75;;;26.75;37.68
21824;BME280;11074;48.596;9.238;2023-07-13T11:51:52;98302.56;;;27.01;37.39
21824;BME280;11074;48.596;9.238;2023-07-13T11:54:31;98293.25;;;27.05;37.16
21824;BME280;11074;48.596;9.238;2023-07-13T11:57:02;98299.59;;;27.09;35.32
21824;BME280;11074;48.596;9.238;2023-07-13T11:59:33;98298.72;;;27.21;35.17
21824;BME280;11074;48.596;9.238;2023-07-13T12:02:16;98303.91;;;27.26;33.96
21824;BME280;11074;48.596;9.238;2023-07-13T12:04:44;98310.50;;;27.22;34.00
21824;BME280;11074;48.596;9.238;2023-07-13T12:07:18;98302.66;;;27.39;34.35
21824;BME280;11074;48.596;9.238;2023-07-13T12:09:44;98310.53;;;27.56;33.69
21824;BME280;11074;48.596;9.238;2023-07-13T12:12:18;98315.94;;;27.53;33.39
21824;BME280;11074;48.596;9.238;2023-07-13T12:14:44;98316.59;;;27.46;33.98
21824;BME280;11074;48.596;9.238;2023-07-13T12:17:19;98308.63;;;27.26;34.31
21824;BME280;11074;48.596;9.238;2023-07-13T12:19:48;98311.56;;;27.17;33.68
21824;BME280;11074;48.596;9.238;2023-07-13T12:22:16;98311.22;;;27.19;33.73
21824;BME280;11074;48.596;9.238;2023-07-13T12:24:43;98300.47;;;27.29;33.30
21824;BME280;11074;48.596;9.238;2023-07-13T12:27:27;98315.13;;;27.52;33.21
21824;BME280;11074;48.596;9.238;2023-07-13T12:30:21;98303.81;;;27.54;33.17
21824;BME280;11074;48.596;9.238;2023-07-13T12:33:16;98307.69;;;27.53;33.10
21824;BME280;11074;48.596;9.238;2023-07-13T12:35:48;98302.28;;;27.56;33.15
21824;BME280;11074;48.596;9.238;2023-07-13T12:38:16;98311.44;;;27.29;33.47
21824;BME280;11074;48.596;9.238;2023-07-13T12:40:42;98294.84;;;27.06;33.38
21824;BME280;11074;48.596;9.238;2023-07-13T12:43:13;98292.19;;;27.10;33.73
21824;BME280;11074;48.596;9.238;2023-07-13T12:46:03;98297.88;;;27.36;33.77
21824;BME280;11074;48.596;9.238;2023-07-13T12:48:29;98299.91;;;27.39;32.53
21824;BME280;11074;48.596;9.238;2023-07-13T12:51:00;98306.84;;;27.49;32.46
21824;BME280;11074;48.596;9.238;2023-07-13T12:53:30;98304.22;;;27.56;31.74
21824;BME280;11074;48.596;9.238;2023-07-13T12:56:03;98290.09;;;27.73;32.57
21824;BME280;11074;48.596;9.238;2023-07-13T12:58:40;98290.00;;;27.89;33.13
21824;BME280;11074;48.596;9.238;2023-07-13T13:01:12;98301.72;;;27.86;33.13
21824;BME280;11074;48.596;9.238;2023-07-13T13:03:52;98289.28;;;27.73;33.04
21824;BME280;11074;48.596;9.238;2023-07-13T13:06:21;98293.53;;;27.89;33.28
21824;BME280;11074;48.596;9.238;2023-07-13T13:08:55;98296.50;;;27.81;32.59
21824;BME280;11074;48.596;9.238;2023-07-13T13:11:24;98301.22;;;27.80;32.40
21824;BME280;11074;48.596;9.238;2023-07-13T13:13:50;98295.34;;;27.82;32.36
21824;BME280;11074;48.596;9.238;2023-07-13T13:18:56;98285.84;;;27.60;32.40
21824;BME280;11074;48.596;9.238;2023-07-13T13:21:25;98275.25;;;27.58;32.96
21824;BME280;11074;48.596;9.238;2023-07-13T13:23:52;98292.84;;;27.73;33.65
21824;BME280;11074;48.596;9.238;2023-07-13T13:26:21;98284.94;;;27.91;33.98
21824;BME280;11074;48.596;9.238;2023-07-13T13:28:47;98279.78;;;28.08;34.32
21824;BME280;11074;48.596;9.238;2023-07-13T13:31:14;98284.78;;;28.22;34.86
21824;BME280;11074;48.596;9.238;2023-07-13T13:33:43;98274.47;;;28.38;34.77
21824;BME280;11074;48.596;9.238;2023-07-13T13:36:22;98272.75;;;28.53;35.05
21824;BME280;11074;48.596;9.238;2023-07-13T13:38:50;98283.28;;;28.47;33.29
21824;BME280;11074;48.596;9.238;2023-07-13T13:41:20;98279.19;;;28.60;32.55
21824;BME280;11074;48.596;9.238;2023-07-13T13:43:46;98282.25;;;28.78;33.11
21824;BME280;11074;48.596;9.238;2023-07-13T13:46:24;98291.31;;;28.78;33.39
21824;BME280;11074;48.596;9.238;2023-07-13T13:48:55;98274.97;;;28.66;33.11
21824;BME280;11074;48.596;9.238;2023-07-13T13:51:24;98271.53;;;28.73;32.95